Time;durP1;ratioP1;P1;durP2;ratioP2;P2;SDS_P1;SDS_P2;PMS_P1;PMS_P2;Temp;Humidity;BMP_temperature;BMP_pressure;BME280_temperature;BME280_humidity;BME280_pressure;Samples;Min_cycle;Max_cycle;Signal;HPM_P1;HPM_P2
2023/03/27 00:00:55;;;;;;;8.65;2.78;;;;;;;;;;5114523;28;20180;-77
2023/03/27 00:03:21;;;;;;;11.35;2.33;;;;;;;;;;5113760;28;20046;-77
2023/03/27 00:05:46;;;;;;;8.63;2.40;;;;;;;;;;5114440;28;20032;-77
2023/03/27 00:08:12;;;;;;;16.25;2.20;;;;;;;;;;5110945;28;20047;-78
2023/03/27 00:10:38;;;;;;;9.48;2.20;;;;;;;;;;5115697;28;20043;-77
2023/03/27 00:13:07;;;;;;;5.45;2.10;;;;;;;;;;5113829;28;20031;-77
2023/03/27 00:15:34;;;;;;;7.55;2.50;;;;;;;;;;5113618;28;20040;-77
2023/03/27 00:18:03;;;;;;;7.32;2.30;;;;;;;;;;5113786;28;20081;-77
2023/03/27 00:20:36;;;;;;;6.53;2.35;;;;;;;;;;5114563;28;20061;-77
2023/03/27 00:23:01;;;;;;;7.65;2.42;;;;;;;;;;5115376;27;20061;-80
2023/03/27 00:25:27;;;;;;;8.25;2.17;;;;;;;;;;5112412;28;20036;-77
2023/03/27 00:27:55;;;;;;;5.03;1.85;;;;;;;;;;5102147;28;20042;-76
2023/03/27 00:30:21;;;;;;;6.90;1.92;;;;;;;;;;5113986;28;20531;-76
2023/03/27 00:32:47;;;;;;;7.85;1.90;;;;;;;;;;5105820;27;20040;-76
2023/03/27 00:35:13;;;;;;;8.85;1.95;;;;;;;;;;5102077;28;20043;-76
2023/03/27 00:37:39;;;;;;;7.05;2.10;;;;;;;;;;5111152;28;20042;-77
2023/03/27 00:40:18;;;;;;;6.13;1.67;;;;;;;;;;5108627;28;20403;-76
2023/03/27 00:42:45;;;;;;;12.98;1.77;;;;;;;;;;5108212;28;20122;-77
2023/03/27 00:45:19;;;;;;;9.73;2.05;;;;;;;;;;5108850;28;20051;-77
2023/03/27 00:47:45;;;;;;;;;;;;;;;;;;5115324;28;20042;-77
2023/03/27 00:50:22;;;;;;;8.93;1.90;;;;;;;;;;5114229;28;19975;-77
2023/03/27 00:52:52;;;;;;;7.28;1.80;;;;;;;;;;5113372;28;20027;-77
2023/03/27 00:55:19;;;;;;;6.63;1.95;;;;;;;;;;5113695;28;20051;-77
2023/03/27 00:57:49;;;;;;;5.97;1.80;;;;;;;;;;5089848;28;20082;-77
2023/03/27 01:00:15;;;;;;;9.45;2.17;;;;;;;;;;5113745;28;20096;-77
2023/03/27 01:02:43;;;;;;;5.15;1.83;;;;;;;;;;5114430;28;20046;-77
2023/03/27 01:05:10;;;;;;;7.13;2.33;;;;;;;;;;5113681;28;20035;-78
2023/03/27 01:07:36;;;;;;;7.38;1.50;;;;;;;;;;5113433;28;20039;-77
2023/03/27 01:10:04;;;;;;;10.88;1.90;;;;;;;;;;5111867;28;20038;-76
2023/03/27 01:12:36;;;;;;;5.38;2.00;;;;;;;;;;5099634;28;20042;-76
2023/03/27 01:15:23;;;;;;;7.65;1.50;;;;;;;;;;5105117;28;20044;-76
2023/03/27 01:17:58;;;;;;;3.22;1.52;;;;;;;;;;5104504;28;20396;-76
2023/03/27 01:20:23;;;;;;;4.55;1.30;;;;;;;;;;5107127;28;20114;-77
2023/03/27 01:23:11;;;;;;;10.32;2.05;;;;;;;;;;5106747;28;20480;-77
2023/03/27 01:25:54;;;;;;;8.02;1.63;;;;;;;;;;5108154;28;20028;-77
2023/03/27 01:28:36;;;;;;;4.07;1.80;;;;;;;;;;5111502;28;20026;-76
2023/03/27 01:31:08;;;;;;;6.45;1.60;;;;;;;;;;5111537;28;20379;-76
2023/03/27 01:33:47;;;;;;;4.43;1.77;;;;;;;;;;5112173;28;20050;-76
2023/03/27 01:36:24;;;;;;;10.60;1.88;;;;;;;;;;5102601;28;20428;-76
2023/03/27 01:38:59;;;;;;;5.22;1.73;;;;;;;;;;5108877;28;20124;-76
2023/03/27 01:41:35;;;;;;;4.85;1.45;;;;;;;;;;5113641;28;20036;-77
2023/03/27 01:44:12;;;;;;;3.17;1.38;;;;;;;;;;5112461;28;20027;-76
2023/03/27 01:46:43;;;;;;;7.85;1.50;;;;;;;;;;5112599;28;20027;-76
2023/03/27 01:49:13;;;;;;;2.47;1.35;;;;;;;;;;5112899;28;20114;-76
2023/03/27 01:51:42;;;;;;;6.57;1.65;;;;;;;;;;5113035;28;20039;-76
2023/03/27 01:54:36;;;;;;;7.20;2.13;;;;;;;;;;5104522;28;20107;-76
2023/03/27 01:57:07;;;;;;;5.05;1.52;;;;;;;;;;5082635;28;20079;-76
2023/03/27 01:59:37;;;;;;;6.82;1.65;;;;;;;;;;5108833;28;20034;-76
2023/03/27 02:02:09;;;;;;;5.47;1.90;;;;;;;;;;5109451;28;20534;-77
2023/03/27 02:04:46;;;;;;;5.30;1.60;;;;;;;;;;5092080;28;20437;-77
2023/03/27 02:07:17;;;;;;;6.65;1.40;;;;;;;;;;5107060;28;20059;-76
2023/03/27 02:09:48;;;;;;;6.30;1.90;;;;;;;;;;5113485;28;20036;-77
2023/03/27 02:12:18;;;;;;;8.05;1.85;;;;;;;;;;5106444;28;20126;-76
2023/03/27 02:14:50;;;;;;;8.50;2.08;;;;;;;;;;5112278;28;20040;-76
2023/03/27 02:17:17;;;;;;;6.72;1.48;;;;;;;;;;5112401;28;20039;-77
2023/03/27 02:19:55;;;;;;;8.45;1.40;;;;;;;;;;5106251;28;20043;-76
2023/03/27 02:22:20;;;;;;;6.75;1.50;;;;;;;;;;5111836;28;20077;-76
2023/03/27 02:24:47;;;;;;;10.57;1.92;;;;;;;;;;5112450;28;20040;-76
2023/03/27 02:27:27;;;;;;;7.68;2.08;;;;;;;;;;5107270;28;20028;-76
2023/03/27 02:30:09;;;;;;;6.70;1.38;;;;;;;;;;5108326;28;20096;-76
2023/03/27 02:32:47;;;;;;;9.98;1.77;;;;;;;;;;5103775;28;20020;-76
2023/03/27 02:35:19;;;;;;;5.88;1.60;;;;;;;;;;5113431;28;20114;-77
2023/03/27 02:38:16;;;;;;;13.88;2.00;;;;;;;;;;5104777;28;20072;-77
2023/03/27 02:40:53;;;;;;;7.57;1.70;;;;;;;;;;5079061;28;20446;-76
2023/03/27 02:43:25;;;;;;;2.70;1.30;;;;;;;;;;5109169;28;20396;-76
2023/03/27 02:45:55;;;;;;;9.10;1.75;;;;;;;;;;5111496;28;20039;-76
2023/03/27 02:48:30;;;;;;;3.40;1.42;;;;;;;;;;5109036;28;20375;-76
2023/03/27 02:51:00;;;;;;;7.68;1.70;;;;;;;;;;5111539;28;20046;-76
2023/03/27 02:53:27;;;;;;;9.38;2.30;;;;;;;;;;5112078;28;20054;-76
2023/03/27 02:55:59;;;;;;;7.78;1.75;;;;;;;;;;5111375;28;20443;-76
2023/03/27 02:58:34;;;;;;;6.40;1.58;;;;;;;;;;5111891;28;20024;-76
2023/03/27 03:01:00;;;;;;;9.52;1.95;;;;;;;;;;5100042;28;20059;-76
2023/03/27 03:03:52;;;;;;;5.68;1.65;;;;;;;;;;5107263;28;20399;-75
2023/03/27 03:06:18;;;;;;;5.25;1.60;;;;;;;;;;5116115;28;20119;-77
2023/03/27 03:08:45;;;;;;;7.05;1.73;;;;;;;;;;5115922;28;20117;-76
2023/03/27 03:11:13;;;;;;;5.30;1.30;;;;;;;;;;5113782;28;20478;-76
2023/03/27 03:13:40;;;;;;;6.40;1.65;;;;;;;;;;5114637;28;20046;-76
2023/03/27 03:16:07;;;;;;;5.80;1.75;;;;;;;;;;5108422;28;20043;-76
2023/03/27 03:18:33;;;;;;;10.30;1.70;;;;;;;;;;5112102;28;20093;-77
2023/03/27 03:20:58;;;;;;;8.90;1.90;;;;;;;;;;5111183;28;20355;-77
2023/03/27 03:23:25;;;;;;;5.40;1.45;;;;;;;;;;5113843;28;20044;-77
2023/03/27 03:25:55;;;;;;;5.05;1.48;;;;;;;;;;5114979;28;20126;-77
2023/03/27 03:28:26;;;;;;;5.10;1.48;;;;;;;;;;5116432;28;20035;-77
2023/03/27 03:30:52;;;;;;;6.57;1.77;;;;;;;;;;5114319;28;20048;-77
2023/03/27 03:33:18;;;;;;;6.85;1.70;;;;;;;;;;5110744;28;20035;-77
2023/03/27 03:35:50;;;;;;;12.00;1.50;;;;;;;;;;5115691;28;20027;-77
2023/03/27 03:38:23;;;;;;;10.25;2.10;;;;;;;;;;5112324;28;20138;-77
2023/03/27 03:40:53;;;;;;;6.53;1.58;;;;;;;;;;5110043;28;20090;-77
2023/03/27 03:43:20;;;;;;;5.80;1.83;;;;;;;;;;5112369;28;20044;-78
2023/03/27 03:45:45;;;;;;;4.95;1.50;;;;;;;;;;5114316;28;20479;-77
2023/03/27 03:48:11;;;;;;;6.47;1.83;;;;;;;;;;5116132;28;20062;-77
2023/03/27 03:50:36;;;;;;;10.18;1.67;;;;;;;;;;5116491;28;20526;-77
2023/03/27 03:53:02;;;;;;;4.85;1.42;;;;;;;;;;5115986;28;20028;-77
2023/03/27 03:55:28;;;;;;;4.78;1.95;;;;;;;;;;5115658;28;20403;-76
2023/03/27 03:57:54;;;;;;;4.45;1.50;;;;;;;;;;5115457;28;20031;-77
2023/03/27 04:00:21;;;;;;;6.95;2.17;;;;;;;;;;5114703;28;20044;-77
2023/03/27 04:02:49;;;;;;;4.68;1.50;;;;;;;;;;5112184;28;20051;-76
2023/03/27 04:05:15;;;;;;;6.35;1.45;;;;;;;;;;5114869;28;20035;-76
2023/03/27 04:07:41;;;;;;;5.57;1.50;;;;;;;;;;5115492;28;20043;-77
2023/03/27 04:10:07;;;;;;;5.00;1.73;;;;;;;;;;5115247;27;20026;-77
2023/03/27 04:12:33;;;;;;;5.03;1.52;;;;;;;;;;5112984;28;20078;-76
2023/03/27 04:14:58;;;;;;;6.35;1.60;;;;;;;;;;5115070;28;20067;-77
2023/03/27 04:17:25;;;;;;;7.97;1.80;;;;;;;;;;5106746;28;20028;-77
2023/03/27 04:19:53;;;;;;;4.35;1.40;;;;;;;;;;5095400;28;20561;-76
2023/03/27 04:22:21;;;;;;;6.03;1.75;;;;;;;;;;5108340;28;20040;-77
2023/03/27 04:24:49;;;;;;;2.72;1.40;;;;;;;;;;5114550;28;20020;-76
2023/03/27 04:27:16;;;;;;;7.13;1.52;;;;;;;;;;5107329;28;20063;-77
2023/03/27 04:29:42;;;;;;;8.90;1.92;;;;;;;;;;5105277;28;20070;-76
2023/03/27 04:32:10;;;;;;;9.25;2.05;;;;;;;;;;5102992;28;20032;-76
2023/03/27 04:34:39;;;;;;;7.00;1.77;;;;;;;;;;5107568;28;20114;-76
2023/03/27 04:37:05;;;;;;;6.07;1.60;;;;;;;;;;5115328;28;20039;-76
2023/03/27 04:39:34;;;;;;;3.38;1.50;;;;;;;;;;5111820;27;20367;-77
2023/03/27 04:42:01;;;;;;;7.40;1.98;;;;;;;;;;5106556;28;20032;-77
2023/03/27 04:44:26;;;;;;;9.32;1.92;;;;;;;;;;5109270;28;20048;-76
2023/03/27 04:46:52;;;;;;;10.05;1.88;;;;;;;;;;5113271;28;20038;-77
2023/03/27 04:49:19;;;;;;;13.45;2.10;;;;;;;;;;5109835;28;20032;-77
2023/03/27 04:51:45;;;;;;;5.65;1.60;;;;;;;;;;5114624;28;20484;-76
2023/03/27 04:54:11;;;;;;;6.03;2.00;;;;;;;;;;5113891;28;20040;-76
2023/03/27 04:56:36;;;;;;;7.45;1.85;;;;;;;;;;5112790;28;20069;-76
2023/03/27 04:59:04;;;;;;;11.25;1.90;;;;;;;;;;5110586;28;20432;-76
2023/03/27 05:01:30;;;;;;;9.98;2.08;;;;;;;;;;5110350;28;20479;-76
2023/03/27 05:03:55;;;;;;;12.35;2.05;;;;;;;;;;5114123;28;20036;-77
2023/03/27 05:06:22;;;;;;;11.35;2.00;;;;;;;;;;5112586;28;20475;-78
2023/03/27 05:08:47;;;;;;;6.50;1.70;;;;;;;;;;5113357;28;20502;-77
2023/03/27 05:11:13;;;;;;;8.55;1.70;;;;;;;;;;5113012;28;20077;-77
2023/03/27 05:13:38;;;;;;;6.78;1.83;;;;;;;;;;5100132;28;20069;-77
2023/03/27 05:16:05;;;;;;;6.38;1.42;;;;;;;;;;5109522;28;20031;-77
2023/03/27 05:18:30;;;;;;;7.22;1.50;;;;;;;;;;5114064;28;20058;-77
2023/03/27 05:20:59;;;;;;;6.93;1.50;;;;;;;;;;5106348;28;20040;-77
2023/03/27 05:23:25;;;;;;;10.05;1.70;;;;;;;;;;5113281;28;20029;-77
2023/03/27 05:25:51;;;;;;;6.43;1.33;;;;;;;;;;5099730;28;20039;-77
2023/03/27 05:28:16;;;;;;;3.85;1.40;;;;;;;;;;5107625;28;20038;-77
2023/03/27 05:30:42;;;;;;;5.20;1.77;;;;;;;;;;5113057;28;20062;-78
2023/03/27 05:33:08;;;;;;;10.23;1.73;;;;;;;;;;5113848;28;20081;-77
2023/03/27 05:35:33;;;;;;;5.20;1.27;;;;;;;;;;5114493;28;20123;-77
2023/03/27 05:37:59;;;;;;;10.30;1.67;;;;;;;;;;5112769;28;20106;-77
2023/03/27 05:40:27;;;;;;;10.02;1.92;;;;;;;;;;5111310;28;20058;-77
2023/03/27 05:42:53;;;;;;;3.80;1.63;;;;;;;;;;5105108;28;20483;-77
2023/03/27 05:45:20;;;;;;;6.97;2.00;;;;;;;;;;5111631;28;20118;-77
2023/03/27 05:47:51;;;;;;;4.78;1.88;;;;;;;;;;5109292;28;20471;-77
2023/03/27 05:50:18;;;;;;;4.97;1.58;;;;;;;;;;5096113;28;20124;-76
2023/03/27 05:52:44;;;;;;;5.28;1.65;;;;;;;;;;5112510;28;20085;-75
2023/03/27 05:55:10;;;;;;;5.80;1.70;;;;;;;;;;5112712;28;20044;-76
2023/03/27 05:57:40;;;;;;;5.65;1.70;;;;;;;;;;5113099;28;20038;-76
2023/03/27 06:00:10;;;;;;;4.28;1.73;;;;;;;;;;5112434;28;20509;-76
2023/03/27 06:02:35;;;;;;;9.85;1.95;;;;;;;;;;5112112;28;20035;-76
2023/03/27 06:05:00;;;;;;;6.38;1.90;;;;;;;;;;5113891;28;20530;-78
2023/03/27 06:07:27;;;;;;;8.48;1.90;;;;;;;;;;5105024;28;20085;-76
2023/03/27 06:09:52;;;;;;;4.13;1.40;;;;;;;;;;5112559;28;20039;-75
2023/03/27 06:12:18;;;;;;;7.97;2.00;;;;;;;;;;5113377;28;20048;-76
2023/03/27 06:14:44;;;;;;;9.60;1.92;;;;;;;;;;5105579;28;20070;-75
2023/03/27 06:17:09;;;;;;;5.38;2.13;;;;;;;;;;5098464;28;20047;-76
2023/03/27 06:19:35;;;;;;;11.50;2.10;;;;;;;;;;5111112;28;20031;-76
2023/03/27 06:22:00;;;;;;;3.78;1.70;;;;;;;;;;5109633;28;20024;-77
2023/03/27 06:24:26;;;;;;;4.88;1.90;;;;;;;;;;5113758;28;20399;-76
2023/03/27 06:26:51;;;;;;;9.98;1.98;;;;;;;;;;5113439;28;20073;-76
2023/03/27 06:29:17;;;;;;;11.18;2.08;;;;;;;;;;5105970;28;20513;-77
2023/03/27 06:31:43;;;;;;;11.30;2.20;;;;;;;;;;5112089;28;20039;-76
2023/03/27 06:34:09;;;;;;;4.13;1.77;;;;;;;;;;5112923;28;20123;-76
2023/03/27 06:36:35;;;;;;;8.55;2.17;;;;;;;;;;5113586;28;20024;-76
2023/03/27 06:39:03;;;;;;;6.00;1.73;;;;;;;;;;5110006;28;20065;-76
2023/03/27 06:41:28;;;;;;;9.95;2.20;;;;;;;;;;5117646;28;20097;-76
2023/03/27 06:43:54;;;;;;;9.30;2.05;;;;;;;;;;5117075;28;20471;-76
2023/03/27 06:46:20;;;;;;;11.45;2.20;;;;;;;;;;5116071;27;20133;-77
2023/03/27 06:48:46;;;;;;;8.05;1.95;;;;;;;;;;5107589;28;20110;-76
2023/03/27 06:51:12;;;;;;;7.05;1.95;;;;;;;;;;5116783;28;20062;-76
2023/03/27 06:53:37;;;;;;;6.68;1.50;;;;;;;;;;5111556;28;20479;-77
2023/03/27 06:56:03;;;;;;;5.85;2.08;;;;;;;;;;5111827;28;20047;-77
2023/03/27 06:58:28;;;;;;;4.60;1.85;;;;;;;;;;5100084;28;20031;-77
2023/03/27 07:00:54;;;;;;;4.05;1.73;;;;;;;;;;5112926;28;20487;-77
2023/03/27 07:03:21;;;;;;;3.97;1.63;;;;;;;;;;5112085;28;20031;-76
2023/03/27 07:05:47;;;;;;;3.63;1.50;;;;;;;;;;5107877;28;20161;-76
2023/03/27 07:08:14;;;;;;;7.00;1.50;;;;;;;;;;5112688;28;20081;-77
2023/03/27 07:10:40;;;;;;;5.00;1.70;;;;;;;;;;5116173;28;20039;-76
2023/03/27 07:13:06;;;;;;;5.68;1.38;;;;;;;;;;5113364;28;20470;-77
2023/03/27 07:15:31;;;;;;;6.57;1.42;;;;;;;;;;5114775;28;20038;-76
2023/03/27 07:18:03;;;;;;;4.18;1.55;;;;;;;;;;5114496;28;20040;-78
2023/03/27 07:20:30;;;;;;;4.93;1.50;;;;;;;;;;5091467;28;20024;-78
2023/03/27 07:22:57;;;;;;;7.10;1.50;;;;;;;;;;5113094;28;20039;-77
2023/03/27 07:25:25;;;;;;;6.03;1.55;;;;;;;;;;5113600;28;20036;-78
2023/03/27 07:27:50;;;;;;;12.02;1.73;;;;;;;;;;5106671;28;20027;-77
2023/03/27 07:30:16;;;;;;;6.25;1.70;;;;;;;;;;5092113;28;20039;-78
2023/03/27 07:32:43;;;;;;;6.78;1.33;;;;;;;;;;5103259;28;20115;-77
2023/03/27 07:35:10;;;;;;;7.82;1.48;;;;;;;;;;5097412;28;20031;-77
2023/03/27 07:37:37;;;;;;;6.25;1.48;;;;;;;;;;5098010;28;20043;-77
2023/03/27 07:40:12;;;;;;;12.15;2.55;;;;;;;;;;5111708;28;20057;-79
2023/03/27 07:42:43;;;;;;;7.57;1.40;;;;;;;;;;5105290;28;20031;-76
2023/03/27 07:45:10;;;;;;;5.75;1.40;;;;;;;;;;5112367;28;20058;-77
2023/03/27 07:47:35;;;;;;;3.42;1.20;;;;;;;;;;5112145;28;20028;-77
2023/03/27 07:50:01;;;;;;;6.32;1.50;;;;;;;;;;5109496;28;20034;-77
2023/03/27 07:52:28;;;;;;;6.68;1.38;;;;;;;;;;5110129;28;20040;-79
2023/03/27 07:54:55;;;;;;;6.25;1.58;;;;;;;;;;5112184;28;20054;-79
2023/03/27 07:57:21;;;;;;;6.45;1.48;;;;;;;;;;5113458;28;20059;-79
2023/03/27 07:59:48;;;;;;;4.95;1.45;;;;;;;;;;5108532;28;20043;-79
2023/03/27 08:02:14;;;;;;;5.68;1.50;;;;;;;;;;5113439;28;20396;-79
2023/03/27 08:04:40;;;;;;;4.80;1.70;;;;;;;;;;5091261;28;20031;-79
2023/03/27 08:07:05;;;;;;;9.30;1.85;;;;;;;;;;5105927;28;20031;-79
2023/03/27 08:09:31;;;;;;;7.82;2.50;;;;;;;;;;5110128;28;20524;-79
2023/03/27 08:11:56;;;;;;;7.95;3.05;;;;;;;;;;5111529;28;20027;-79
2023/03/27 08:14:25;;;;;;;7.78;2.67;;;;;;;;;;5111710;28;20066;-79
2023/03/27 08:16:50;;;;;;;7.50;1.92;;;;;;;;;;5111949;28;20066;-80
2023/03/27 08:19:17;;;;;;;7.03;1.77;;;;;;;;;;5111741;28;20067;-80
2023/03/27 08:21:42;;;;;;;16.33;2.70;;;;;;;;;;5111691;28;20036;-80
2023/03/27 08:24:08;;;;;;;6.32;1.80;;;;;;;;;;5111854;28;20379;-80
2023/03/27 08:26:33;;;;;;;6.13;2.47;;;;;;;;;;5112642;28;20059;-80
2023/03/27 08:28:59;;;;;;;7.47;1.83;;;;;;;;;;5111563;28;20305;-79
2023/03/27 08:31:26;;;;;;;4.63;1.70;;;;;;;;;;5112145;28;20039;-80
2023/03/27 08:33:52;;;;;;;5.07;1.70;;;;;;;;;;5096073;28;20024;-80
2023/03/27 08:36:18;;;;;;;5.43;2.00;;;;;;;;;;5111578;28;20040;-79
2023/03/27 08:38:45;;;;;;;7.20;1.83;;;;;;;;;;5112011;28;20031;-79
2023/03/27 08:41:37;;;;;;;6.63;2.25;;;;;;;;;;5112331;28;20032;-79
2023/03/27 08:44:05;;;;;;;6.72;2.10;;;;;;;;;;5105603;28;20122;-79
2023/03/27 08:46:56;;;;;;;6.70;1.63;;;;;;;;;;5108332;28;20364;-79
2023/03/27 08:49:25;;;;;;;6.15;1.77;;;;;;;;;;5111343;28;20482;-79
2023/03/27 08:52:02;;;;;;;7.75;1.63;;;;;;;;;;5110915;28;20057;-79
2023/03/27 08:54:31;;;;;;;6.05;1.73;;;;;;;;;;5111003;28;20079;-79
2023/03/27 08:56:56;;;;;;;6.32;1.98;;;;;;;;;;5110407;28;20390;-79
2023/03/27 08:59:26;;;;;;;11.82;1.77;;;;;;;;;;5109363;28;20047;-81
2023/03/27 09:02:29;;;;;;;4.65;1.85;;;;;;;;;;5100263;28;20103;-80
2023/03/27 09:05:07;;;;;;;6.85;1.75;;;;;;;;;;5111554;28;20039;-80
2023/03/27 09:08:00;;;;;;;5.75;1.70;;;;;;;;;;5107118;28;20081;-79
2023/03/27 09:10:35;;;;;;;4.28;1.40;;;;;;;;;;5104994;28;20050;-80
2023/03/27 09:13:19;;;;;;;5.45;1.63;;;;;;;;;;5103337;28;20032;-80
2023/03/27 09:16:01;;;;;;;11.38;2.33;;;;;;;;;;5101528;28;20035;-80
2023/03/27 09:18:33;;;;;;;8.98;2.17;;;;;;;;;;5097273;28;20119;-81
2023/03/27 09:21:09;;;;;;;7.28;2.30;;;;;;;;;;5109139;28;20495;-81
2023/03/27 09:23:43;;;;;;;5.63;2.10;;;;;;;;;;5109592;28;20027;-81
2023/03/27 09:26:11;;;;;;;5.43;1.58;;;;;;;;;;5110703;28;20039;-80
2023/03/27 09:28:50;;;;;;;7.05;1.88;;;;;;;;;;5094161;28;20365;-78
2023/03/27 09:31:23;;;;;;;7.53;2.05;;;;;;;;;;5102321;28;20494;-79
2023/03/27 09:33:49;;;;;;;7.20;2.10;;;;;;;;;;5082525;28;20073;-78
2023/03/27 09:36:14;;;;;;;11.65;2.03;;;;;;;;;;5105536;28;20039;-80
2023/03/27 09:38:49;;;;;;;4.88;1.83;;;;;;;;;;5104668;28;20459;-81
2023/03/27 09:41:22;;;;;;;9.45;2.22;;;;;;;;;;5108904;28;20062;-81
2023/03/27 09:43:55;;;;;;;6.28;1.70;;;;;;;;;;5103830;27;20058;-80
2023/03/27 09:46:22;;;;;;;7.15;1.85;;;;;;;;;;5098540;28;20040;-80
2023/03/27 09:48:55;;;;;;;7.97;1.80;;;;;;;;;;5103900;28;20123;-80
2023/03/27 09:51:40;;;;;;;6.72;2.15;;;;;;;;;;5108501;28;20501;-81
2023/03/27 09:54:07;;;;;;;5.90;1.80;;;;;;;;;;5104984;28;20395;-80
2023/03/27 09:56:45;;;;;;;5.40;2.03;;;;;;;;;;5107829;28;20043;-81
2023/03/27 09:59:22;;;;;;;6.03;1.70;;;;;;;;;;5097214;28;20462;-81
2023/03/27 10:01:50;;;;;;;6.35;1.70;;;;;;;;;;5107742;28;20130;-81
2023/03/27 10:04:18;;;;;;;10.63;1.92;;;;;;;;;;5105899;28;20031;-81
2023/03/27 10:06:43;;;;;;;10.00;2.40;;;;;;;;;;5108683;28;20031;-80
2023/03/27 10:09:21;;;;;;;8.65;1.90;;;;;;;;;;5101709;28;20870;-79
2023/03/27 10:11:49;;;;;;;7.20;2.17;;;;;;;;;;5107152;28;20039;-81
2023/03/27 10:14:21;;;;;;;8.65;2.70;;;;;;;;;;5102568;28;20130;-80
2023/03/27 10:16:47;;;;;;;7.60;1.92;;;;;;;;;;5095214;28;20088;-80
2023/03/27 10:19:26;;;;;;;6.35;2.15;;;;;;;;;;5109094;28;20027;-81
2023/03/27 10:21:53;;;;;;;8.85;2.00;;;;;;;;;;5091000;28;20118;-80
2023/03/27 10:24:32;;;;;;;6.97;1.90;;;;;;;;;;5107637;28;20027;-79
2023/03/27 10:26:59;;;;;;;5.47;2.08;;;;;;;;;;5094691;28;20036;-80
2023/03/27 10:29:30;;;;;;;8.00;1.98;;;;;;;;;;5101743;28;20534;-80
2023/03/27 10:31:58;;;;;;;6.10;2.05;;;;;;;;;;5095725;28;20123;-80
2023/03/27 10:34:39;;;;;;;7.07;1.77;;;;;;;;;;5108339;28;20039;-80
2023/03/27 10:37:19;;;;;;;6.60;2.20;;;;;;;;;;5089507;28;20040;-79
2023/03/27 10:39:45;;;;;;;7.28;1.70;;;;;;;;;;5109292;28;20039;-80
2023/03/27 10:42:12;;;;;;;6.32;1.92;;;;;;;;;;5107476;28;20028;-79
2023/03/27 10:44:38;;;;;;;6.57;2.30;;;;;;;;;;5107174;28;20043;-79
2023/03/27 10:47:14;;;;;;;4.90;1.73;;;;;;;;;;5106525;28;20114;-79
2023/03/27 10:49:45;;;;;;;7.20;1.60;;;;;;;;;;5106147;28;20152;-79
2023/03/27 10:52:16;;;;;;;7.45;2.00;;;;;;;;;;5107273;28;20043;-79
2023/03/27 10:55:00;;;;;;;4.80;1.90;;;;;;;;;;5107801;28;20184;-79
2023/03/27 10:57:31;;;;;;;7.30;1.83;;;;;;;;;;5108353;28;20407;-79
2023/03/27 11:00:12;;;;;;;6.53;2.10;;;;;;;;;;5106677;28;20043;-80
2023/03/27 11:02:47;;;;;;;6.22;1.50;;;;;;;;;;5103069;28;20052;-79
2023/03/27 11:05:25;;;;;;;6.95;1.95;;;;;;;;;;5102264;28;20552;-79
2023/03/27 11:08:07;;;;;;;8.38;1.65;;;;;;;;;;5107518;28;20032;-79
2023/03/27 11:10:40;;;;;;;6.07;1.92;;;;;;;;;;5086872;28;20028;-79
2023/03/27 11:13:08;;;;;;;6.60;1.90;;;;;;;;;;5104101;28;20046;-79
2023/03/27 11:15:39;;;;;;;5.13;1.38;;;;;;;;;;5107355;28;20074;-79
2023/03/27 11:18:13;;;;;;;4.93;2.33;;;;;;;;;;5105604;28;20059;-79
2023/03/27 11:20:50;;;;;;;5.25;1.60;;;;;;;;;;5106791;28;20491;-79
2023/03/27 11:23:34;;;;;;;8.88;2.08;;;;;;;;;;5106119;28;20047;-79
2023/03/27 11:26:02;;;;;;;9.23;2.38;;;;;;;;;;5110406;28;20054;-79
2023/03/27 11:28:51;;;;;;;6.88;1.90;;;;;;;;;;5088175;28;20539;-79
2023/03/27 11:31:38;;;;;;;3.83;1.63;;;;;;;;;;5103967;28;20475;-79
2023/03/27 11:34:27;;;;;;;9.82;1.90;;;;;;;;;;5104229;28;20031;-79
2023/03/27 11:37:00;;;;;;;3.90;1.50;;;;;;;;;;5108819;28;20048;-79
2023/03/27 11:39:47;;;;;;;4.75;1.35;;;;;;;;;;5109872;28;20027;-79
2023/03/27 11:42:16;;;;;;;1.75;0.80;;;;;;;;;;5091108;28;20035;-79
2023/03/27 11:44:41;;;;;;;4.18;1.00;;;;;;;;;;5109692;28;20406;-80
2023/03/27 11:47:18;;;;;;;2.63;0.80;;;;;;;;;;5110080;28;20047;-79
2023/03/27 11:50:11;;;;;;;2.40;0.80;;;;;;;;;;5105971;28;20035;-79
2023/03/27 11:52:58;;;;;;;2.03;0.85;;;;;;;;;;5111501;28;20379;-79
2023/03/27 11:55:36;;;;;;;2.67;1.10;;;;;;;;;;5112173;28;20096;-78
2023/03/27 11:58:08;;;;;;;4.05;1.23;;;;;;;;;;5110081;28;20089;-79
2023/03/27 12:00:38;;;;;;;2.97;1.00;;;;;;;;;;5108702;28;20041;-79
2023/03/27 12:03:06;;;;;;;4.00;1.45;;;;;;;;;;5109295;28;20070;-79
2023/03/27 12:06:12;;;;;;;4.32;1.10;;;;;;;;;;5111344;28;20027;-79
2023/03/27 12:09:00;;;;;;;2.28;1.08;;;;;;;;;;5106991;28;20031;-79
2023/03/27 12:11:28;;;;;;;5.78;1.20;;;;;;;;;;5109891;28;20050;-80
2023/03/27 12:14:06;;;;;;;2.70;1.10;;;;;;;;;;5103359;28;20520;-79
2023/03/27 12:17:04;;;;;;;6.28;1.00;;;;;;;;;;5108539;28;20031;-79
2023/03/27 12:19:45;;;;;;;2.83;1.25;;;;;;;;;;5099940;28;20032;-79
2023/03/27 12:22:22;;;;;;;4.30;1.00;;;;;;;;;;5109537;28;20027;-78
2023/03/27 12:25:00;;;;;;;3.58;1.05;;;;;;;;;;5107733;28;20471;-79
2023/03/27 12:28:18;;;;;;;1.20;0.80;;;;;;;;;;5105725;28;20028;-79
2023/03/27 12:31:13;;;;;;;4.57;1.05;;;;;;;;;;5050658;28;20459;-79
2023/03/27 12:34:11;;;;;;;5.43;1.02;;;;;;;;;;5099455;28;20039;-80
2023/03/27 12:36:39;;;;;;;5.38;1.10;;;;;;;;;;5108606;28;20410;-79
2023/03/27 12:39:18;;;;;;;4.45;1.30;;;;;;;;;;5103385;28;20523;-79
2023/03/27 12:41:44;;;;;;;4.68;1.40;;;;;;;;;;5103696;28;20035;-79
2023/03/27 12:44:13;;;;;;;5.18;1.13;;;;;;;;;;5110919;28;20378;-79
2023/03/27 12:46:40;;;;;;;2.78;1.10;;;;;;;;;;5109745;28;20063;-79
2023/03/27 12:49:09;;;;;;;4.93;1.48;;;;;;;;;;5103197;28;20036;-79
2023/03/27 12:51:49;;;;;;;2.25;0.95;;;;;;;;;;5105200;28;20051;-79
2023/03/27 12:54:18;;;;;;;2.03;0.90;;;;;;;;;;5093934;28;20097;-79
2023/03/27 12:56:49;;;;;;;2.20;0.80;;;;;;;;;;5105885;28;20043;-79
2023/03/27 12:59:21;;;;;;;7.28;1.13;;;;;;;;;;5093394;28;20475;-79
2023/03/27 13:01:53;;;;;;;4.85;1.00;;;;;;;;;;5107839;28;20507;-79
2023/03/27 13:04:27;;;;;;;3.50;1.25;;;;;;;;;;5106983;28;20483;-79
2023/03/27 13:06:59;;;;;;;6.28;1.30;;;;;;;;;;5098689;28;20027;-79
2023/03/27 13:09:33;;;;;;;3.45;1.10;;;;;;;;;;5106930;28;20027;-79
2023/03/27 13:12:37;;;;;;;2.50;1.20;;;;;;;;;;5108739;28;20077;-79
2023/03/27 13:15:40;;;;;;;3.47;1.55;;;;;;;;;;5074638;28;20083;-78
2023/03/27 13:18:36;;;;;;;6.53;1.30;;;;;;;;;;5101961;28;20073;-78
2023/03/27 13:21:39;;;;;;;5.10;1.48;;;;;;;;;;5109189;28;20035;-79
2023/03/27 13:24:14;;;;;;;4.82;1.92;;;;;;;;;;5095041;28;20112;-80
2023/03/27 13:27:05;;;;;;;3.70;1.20;;;;;;;;;;5103215;28;20551;-79
2023/03/27 13:29:33;;;;;;;5.50;1.15;;;;;;;;;;5109359;28;20481;-79
2023/03/27 13:32:33;;;;;;;2.58;1.00;;;;;;;;;;5104308;28;20080;-79
2023/03/27 13:35:00;;;;;;;5.40;1.50;;;;;;;;;;5108305;28;20035;-78
2023/03/27 13:37:26;;;;;;;4.18;1.30;;;;;;;;;;5108977;27;20047;-78
2023/03/27 13:39:54;;;;;;;3.05;1.15;;;;;;;;;;5107823;28;20394;-79
2023/03/27 13:42:21;;;;;;;5.82;1.50;;;;;;;;;;5108608;28;20096;-79
2023/03/27 13:44:57;;;;;;;4.70;1.15;;;;;;;;;;5104616;28;20044;-78
2023/03/27 13:47:35;;;;;;;6.93;1.50;;;;;;;;;;5106809;28;20163;-79
2023/03/27 13:50:09;;;;;;;3.88;1.30;;;;;;;;;;5099419;28;20051;-79
2023/03/27 13:53:12;;;;;;;3.95;1.30;;;;;;;;;;5109181;28;20027;-79
2023/03/27 13:56:08;;;;;;;4.93;1.17;;;;;;;;;;5108393;28;20537;-79
2023/03/27 13:58:55;;;;;;;7.13;1.30;;;;;;;;;;5107178;28;20032;-78
2023/03/27 14:01:36;;;;;;;5.82;1.20;;;;;;;;;;5103127;28;20043;-79
2023/03/27 14:04:11;;;;;;;5.63;1.50;;;;;;;;;;5092372;28;20055;-78
2023/03/27 14:06:57;;;;;;;3.92;1.40;;;;;;;;;;5108871;28;20074;-78
2023/03/27 14:10:18;;;;;;;3.97;1.10;;;;;;;;;;5103901;28;20370;-78
2023/03/27 14:12:57;;;;;;;4.80;1.33;;;;;;;;;;5093131;28;20058;-78
2023/03/27 14:15:24;;;;;;;8.70;1.90;;;;;;;;;;5100434;28;20376;-78
2023/03/27 14:17:58;;;;;;;4.20;1.50;;;;;;;;;;5107019;28;20109;-79
2023/03/27 14:20:29;;;;;;;9.23;1.75;;;;;;;;;;5099539;28;20062;-79
2023/03/27 14:23:02;;;;;;;3.38;1.38;;;;;;;;;;5109573;28;20039;-78
2023/03/27 14:25:42;;;;;;;4.13;1.20;;;;;;;;;;5108403;28;20071;-78
2023/03/27 14:28:27;;;;;;;2.58;1.20;;;;;;;;;;5108125;28;20039;-78
2023/03/27 14:30:54;;;;;;;6.45;1.77;;;;;;;;;;5106098;28;20046;-78
2023/03/27 14:33:20;;;;;;;4.25;1.50;;;;;;;;;;5108395;28;20051;-78
2023/03/27 14:35:55;;;;;;;4.95;1.50;;;;;;;;;;5107984;28;20031;-78
2023/03/27 14:38:29;;;;;;;8.80;1.52;;;;;;;;;;5108177;28;20054;-78
2023/03/27 14:40:56;;;;;;;3.08;1.27;;;;;;;;;;5103780;28;20050;-78
2023/03/27 14:43:22;;;;;;;6.28;1.38;;;;;;;;;;5106164;28;20035;-78
2023/03/27 14:45:52;;;;;;;3.70;1.30;;;;;;;;;;5107103;28;20040;-78
2023/03/27 14:48:27;;;;;;;2.38;1.05;;;;;;;;;;5108887;28;20036;-78
2023/03/27 14:50:56;;;;;;;5.22;1.50;;;;;;;;;;5107762;28;20036;-77
2023/03/27 14:53:25;;;;;;;5.72;1.40;;;;;;;;;;5109209;28;20051;-78
2023/03/27 14:55:53;;;;;;;4.20;1.60;;;;;;;;;;5076270;28;20048;-78
2023/03/27 14:58:20;;;;;;;7.38;1.35;;;;;;;;;;5104637;28;20403;-78
2023/03/27 15:00:56;;;;;;;2.88;1.30;;;;;;;;;;5110111;28;20035;-78
2023/03/27 15:03:24;;;;;;;4.75;1.40;;;;;;;;;;5110680;28;20046;-78
2023/03/27 15:06:03;;;;;;;5.85;1.40;;;;;;;;;;5111772;28;20111;-77
2023/03/27 15:08:35;;;;;;;5.10;1.40;;;;;;;;;;5099699;28;20122;-78
2023/03/27 15:11:02;;;;;;;5.65;1.55;;;;;;;;;;5112126;28;20039;-78